Time;durP1;ratioP1;P1;durP2;ratioP2;P2;SDS_P1;SDS_P2;PMS_P1;PMS_P2;Temp;Humidity;BMP_temperature;BMP_pressure;BME280_temperature;BME280_humidity;BME280_pressure;Samples;Min_cycle;Max_cycle;Signal;HPM_P1;HPM_P2
2023/07/23 00:00:57;;;;;;;6.23;5.53;;;27.00;55.70;;;;;;5049468;28;20466;-70
2023/07/23 00:03:25;;;;;;;5.90;4.70;;;27.00;55.70;;;;;;5044747;28;20554;-67
2023/07/23 00:05:53;;;;;;;5.50;5.00;;;27.00;55.70;;;;;;5048663;28;20471;-70
2023/07/23 00:08:21;;;;;;;5.93;3.73;;;27.00;55.70;;;;;;5044572;28;20516;-66
2023/07/23 00:10:56;;;;;;;5.77;5.30;;;26.90;55.70;;;;;;5045623;28;20454;-67
2023/07/23 00:13:25;;;;;;;4.90;4.50;;;26.90;55.70;;;;;;5050162;28;20857;-67
2023/07/23 00:15:54;;;;;;;5.63;5.13;;;26.90;55.70;;;;;;5052818;28;20461;-73
2023/07/23 00:18:22;;;;;;;5.50;5.00;;;26.90;55.70;;;;;;5045801;28;20557;-67
2023/07/23 00:20:50;;;;;;;5.57;4.97;;;26.90;55.70;;;;;;5048354;28;20470;-67
2023/07/23 00:23:19;;;;;;;5.33;4.90;;;26.90;55.70;;;;;;5044153;28;20511;-76
2023/07/23 00:25:47;;;;;;;4.97;4.57;;;26.90;55.80;;;;;;5044475;28;20463;-70
2023/07/23 00:28:15;;;;;;;5.13;4.70;;;26.90;55.80;;;;;;5047220;28;20466;-67
2023/07/23 00:30:45;;;;;;;4.67;4.23;;;26.90;55.80;;;;;;5049096;28;20455;-67
2023/07/23 00:33:13;;;;;;;4.73;4.30;;;26.90;55.80;;;;;;5046553;28;20462;-67
2023/07/23 00:35:41;;;;;;;7.70;4.70;;;26.90;55.80;;;;;;5024653;28;20466;-71
2023/07/23 00:38:09;;;;;;;5.50;5.00;;;26.90;55.90;;;;;;5031549;28;20540;-67
2023/07/23 00:40:37;;;;;;;5.70;5.20;;;26.90;55.90;;;;;;5044873;28;20471;-67
2023/07/23 00:43:06;;;;;;;5.20;4.50;;;26.90;55.90;;;;;;5025197;28;21013;-69
2023/07/23 00:45:34;;;;;;;5.27;4.87;;;26.90;56.00;;;;;;5049180;28;21074;-68
2023/07/23 00:48:04;;;;;;;4.90;4.27;;;26.80;55.90;;;;;;5047935;28;20471;-70
2023/07/23 00:50:33;;;;;;;5.77;4.43;;;26.90;56.00;;;;;;5046133;28;20477;-69
2023/07/23 00:53:02;;;;;;;6.27;5.73;;;26.80;56.00;;;;;;5043561;28;20485;-66
2023/07/23 00:55:30;;;;;;;5.30;4.80;;;26.80;56.00;;;;;;5047901;28;20446;-67
2023/07/23 00:57:58;;;;;;;4.73;4.33;;;26.80;56.00;;;;;;5048371;28;20474;-67
2023/07/23 01:00:26;;;;;;;4.40;4.10;;;26.80;56.00;;;;;;5030958;28;20973;-73
2023/07/23 01:02:55;;;;;;;5.20;4.80;;;26.80;56.00;;;;;;5047656;28;20474;-67
2023/07/23 01:05:26;;;;;;;5.80;5.30;;;26.80;56.00;;;;;;5047636;28;20463;-67
2023/07/23 01:07:54;;;;;;;4.43;4.03;;;26.80;56.00;;;;;;5044352;28;20525;-67
2023/07/23 01:10:23;;;;;;;4.37;4.07;;;26.80;56.00;;;;;;5045331;28;20465;-72
2023/07/23 01:12:51;;;;;;;5.20;4.80;;;26.80;56.00;;;;;;5027240;28;20482;-66
2023/07/23 01:15:19;;;;;;;5.40;4.83;;;26.80;56.00;;;;;;5047288;28;20473;-70
2023/07/23 01:17:49;;;;;;;5.67;4.70;;;26.80;56.00;;;;;;5045350;28;21032;-68
2023/07/23 01:20:17;;;;;;;4.97;4.57;;;26.80;56.10;;;;;;5046721;28;20462;-72
2023/07/23 01:22:47;;;;;;;4.47;4.07;;;26.80;56.10;;;;;;5046008;28;20856;-69
2023/07/23 01:25:15;;;;;;;4.40;4.00;;;26.80;56.10;;;;;;5046813;28;20458;-67
2023/07/23 01:27:44;;;;;;;5.20;4.80;;;26.80;56.10;;;;;;5045942;28;20538;-67
2023/07/23 01:30:12;;;;;;;4.57;4.17;;;26.70;56.20;;;;;;5046741;28;20490;-68
2023/07/23 01:32:41;;;;;;;4.53;4.13;;;26.70;56.20;;;;;;5051904;28;20470;-67
2023/07/23 01:35:14;;;;;;;5.00;4.60;;;26.70;56.20;;;;;;5051168;28;20491;-66
2023/07/23 01:37:44;;;;;;;4.60;4.20;;;26.70;56.20;;;;;;5046910;28;20489;-79
2023/07/23 01:40:14;;;;;;;4.43;4.13;;;26.70;56.20;;;;;;5048687;28;20454;-69
2023/07/23 01:42:45;;;;;;;5.00;4.60;;;26.70;56.30;;;;;;5033897;28;20480;-67
2023/07/23 01:45:14;;;;;;;3.97;3.67;;;26.70;56.30;;;;;;5052131;28;20801;-67
2023/07/23 01:47:42;;;;;;;5.13;4.73;;;26.70;56.20;;;;;;5046225;28;20462;-68
2023/07/23 01:50:11;;;;;;;4.10;3.80;;;26.70;56.30;;;;;;5049734;28;20454;-69
2023/07/23 01:52:39;;;;;;;4.33;3.93;;;26.70;56.30;;;;;;5045797;28;20531;-67
2023/07/23 01:55:08;;;;;;;4.23;3.93;;;26.70;56.40;;;;;;5051255;28;20505;-68
2023/07/23 01:57:38;;;;;;;4.37;3.97;;;26.70;56.30;;;;;;5030363;28;20539;-74
2023/07/23 02:00:09;;;;;;;4.93;4.53;;;26.60;56.40;;;;;;5033111;28;20462;-70
2023/07/23 02:02:40;;;;;;;4.10;3.70;;;26.60;56.50;;;;;;5045721;28;20466;-66
2023/07/23 02:05:09;;;;;;;5.33;4.93;;;26.60;56.50;;;;;;5048573;28;20951;-67
2023/07/23 02:07:37;;;;;;;4.10;3.80;;;26.60;56.50;;;;;;5028923;28;20470;-74
2023/07/23 02:10:07;;;;;;;4.60;4.20;;;26.60;56.50;;;;;;5030732;28;20474;-67
2023/07/23 02:12:35;;;;;;;4.60;4.10;;;26.60;56.50;;;;;;5033873;28;20868;-69
2023/07/23 02:15:09;;;;;;;5.00;4.50;;;26.60;56.50;;;;;;5050079;28;20477;-66
2023/07/23 02:17:37;;;;;;;4.80;4.50;;;26.60;56.50;;;;;;5035944;28;20467;-67
2023/07/23 02:20:07;;;;;;;4.50;4.10;;;26.60;56.50;;;;;;5027460;28;20458;-67
2023/07/23 02:22:35;;;;;;;4.17;3.77;;;26.60;56.50;;;;;;5048618;28;20549;-67
2023/07/23 02:25:03;;;;;;;4.57;4.17;;;26.60;56.50;;;;;;5048530;28;20453;-67
2023/07/23 02:27:31;;;;;;;5.27;4.87;;;26.60;56.50;;;;;;5048159;28;20458;-68
2023/07/23 02:30:00;;;;;;;4.30;3.90;;;26.60;56.60;;;;;;5045738;28;20466;-66
2023/07/23 02:32:29;;;;;;;4.90;4.40;;;26.50;56.60;;;;;;5044773;28;21063;-70
2023/07/23 02:34:57;;;;;;;4.03;3.73;;;26.60;56.60;;;;;;5048117;28;20515;-67
2023/07/23 02:37:26;;;;;;;4.57;4.23;;;26.60;56.60;;;;;;5030177;28;20463;-67
2023/07/23 02:39:54;;;;;;;4.60;4.30;;;26.60;56.60;;;;;;5046451;28;20494;-67
2023/07/23 02:42:22;;;;;;;4.10;3.80;;;26.60;56.60;;;;;;5046733;28;20462;-68
2023/07/23 02:44:54;;;;;;;4.80;4.27;;;26.60;56.60;;;;;;5046894;28;20549;-66
2023/07/23 02:47:22;;;;;;;5.23;4.83;;;26.50;56.60;;;;;;5047643;28;20498;-69
2023/07/23 02:49:52;;;;;;;3.57;3.27;;;26.50;56.60;;;;;;5048753;28;20462;-66
2023/07/23 02:52:20;;;;;;;4.00;3.70;;;26.50;56.60;;;;;;5047948;28;20461;-73
2023/07/23 02:54:48;;;;;;;5.10;4.70;;;26.50;56.60;;;;;;5033274;28;20460;-70
2023/07/23 02:57:17;;;;;;;4.67;4.20;;;26.50;56.60;;;;;;5050068;28;21101;-81
2023/07/23 02:59:46;;;;;;;5.23;4.10;;;26.50;56.50;;;;;;5045063;28;20466;-75
2023/07/23 03:02:15;;;;;;;4.80;4.10;;;26.50;56.60;;;;;;5038501;28;20465;-67
2023/07/23 03:04:43;;;;;;;4.40;4.10;;;26.50;56.60;;;;;;5030421;28;20515;-67
2023/07/23 03:07:13;;;;;;;4.40;4.10;;;26.50;56.60;;;;;;5048671;28;20463;-67
2023/07/23 03:09:41;;;;;;;4.10;3.70;;;26.40;56.60;;;;;;5046673;28;20451;-70
2023/07/23 03:12:10;;;;;;;4.43;4.03;;;26.40;56.60;;;;;;5049630;28;20469;-67
2023/07/23 03:14:38;;;;;;;5.20;4.20;;;26.40;56.60;;;;;;5049528;28;20581;-67
2023/07/23 03:17:06;;;;;;;4.40;4.00;;;26.40;56.60;;;;;;5049563;28;20461;-67
2023/07/23 03:19:34;;;;;;;5.97;3.90;;;26.40;56.60;;;;;;5044483;28;20459;-67
2023/07/23 03:22:02;;;;;;;4.73;4.43;;;26.40;56.60;;;;;;5028419;28;20471;-71
2023/07/23 03:24:32;;;;;;;4.07;3.77;;;26.40;56.60;;;;;;5033266;28;20457;-66
2023/07/23 03:27:00;;;;;;;4.50;4.10;;;26.40;56.60;;;;;;5032327;28;20488;-67
2023/07/23 03:29:28;;;;;;;4.20;3.77;;;26.40;56.60;;;;;;5049480;28;20468;-69
2023/07/23 03:31:57;;;;;;;4.37;3.97;;;26.40;56.60;;;;;;5045038;28;20466;-71
2023/07/23 03:34:25;;;;;;;4.17;3.77;;;26.40;56.60;;;;;;5047295;28;20502;-67
2023/07/23 03:36:53;;;;;;;4.10;3.70;;;26.40;56.60;;;;;;5049778;28;20462;-67
2023/07/23 03:39:21;;;;;;;5.20;4.70;;;26.40;56.60;;;;;;5046517;28;20980;-67
2023/07/23 03:41:52;;;;;;;4.33;3.93;;;26.40;56.60;;;;;;5045253;28;20453;-66
2023/07/23 03:44:20;;;;;;;4.07;3.70;;;26.40;56.60;;;;;;5045848;28;20531;-67
2023/07/23 03:47:04;;;;;;;4.50;4.10;;;26.30;56.60;;;;;;5048368;28;20520;-67
2023/07/23 03:49:32;;;;;;;4.53;4.13;;;26.30;56.60;;;;;;5045333;28;20566;-71
2023/07/23 03:52:01;;;;;;;4.30;3.90;;;26.30;56.60;;;;;;5028487;28;20474;-67
2023/07/23 03:54:29;;;;;;;4.17;3.80;;;26.30;56.70;;;;;;5049526;28;20469;-68
2023/07/23 03:56:59;;;;;;;3.90;3.70;;;26.30;56.70;;;;;;5048398;28;20463;-69
2023/07/23 03:59:30;;;;;;;3.67;3.37;;;26.30;56.70;;;;;;5044270;28;20470;-67
2023/07/23 04:01:58;;;;;;;4.40;4.10;;;26.30;56.70;;;;;;5048205;28;20476;-67
2023/07/23 04:04:27;;;;;;;4.73;4.27;;;26.30;56.80;;;;;;5044621;28;20564;-71
2023/07/23 04:06:55;;;;;;;4.20;3.70;;;26.30;56.70;;;;;;5029511;28;20825;-67
2023/07/23 04:09:23;;;;;;;3.93;3.63;;;26.30;56.70;;;;;;5027737;28;20533;-75
2023/07/23 04:11:52;;;;;;;4.50;4.20;;;26.30;56.70;;;;;;5051944;28;20469;-69
2023/07/23 04:14:21;;;;;;;4.30;3.90;;;26.30;56.70;;;;;;5029142;28;20470;-67
2023/07/23 04:16:50;;;;;;;4.80;4.40;;;26.30;56.70;;;;;;5048561;28;20796;-67
2023/07/23 04:19:18;;;;;;;3.83;3.53;;;26.30;56.70;;;;;;5045956;28;20487;-78
2023/07/23 04:21:47;;;;;;;3.23;2.93;;;26.30;56.70;;;;;;5029770;28;20472;-72
2023/07/23 04:24:15;;;;;;;4.00;3.60;;;26.30;56.70;;;;;;5049275;28;20457;-67
2023/07/23 04:26:44;;;;;;;5.07;4.60;;;26.30;56.70;;;;;;5046978;28;20458;-68
2023/07/23 04:29:12;;;;;;;4.40;4.03;;;26.30;56.70;;;;;;5029549;28;20477;-68
2023/07/23 04:31:41;;;;;;;3.60;3.37;;;26.30;56.70;;;;;;5043354;28;20488;-74
2023/07/23 04:34:09;;;;;;;3.50;3.20;;;26.30;56.70;;;;;;5043724;28;20972;-67
2023/07/23 04:36:37;;;;;;;3.83;3.53;;;26.30;56.70;;;;;;5040561;28;20526;-67
2023/07/23 04:39:05;;;;;;;4.43;4.03;;;26.30;56.70;;;;;;5044550;28;20551;-68
2023/07/23 04:41:33;;;;;;;4.10;3.73;;;26.30;56.70;;;;;;5045569;28;20510;-67
2023/07/23 04:44:02;;;;;;;5.07;3.97;;;26.30;56.70;;;;;;5046725;28;20453;-69
2023/07/23 04:46:33;;;;;;;4.23;3.83;;;26.30;56.70;;;;;;5047158;28;20457;-67
2023/07/23 04:49:03;;;;;;;4.03;3.73;;;26.30;56.70;;;;;;5055404;28;20513;-67
2023/07/23 04:51:31;;;;;;;4.30;3.90;;;26.30;56.70;;;;;;5047377;28;20454;-67
2023/07/23 04:54:00;;;;;;;3.87;3.57;;;26.30;56.70;;;;;;5045941;28;20542;-67
2023/07/23 04:56:28;;;;;;;5.23;4.70;;;26.30;56.70;;;;;;5048823;28;20532;-67
2023/07/23 04:58:58;;;;;;;3.97;3.67;;;26.30;56.80;;;;;;5042170;28;20465;-67
2023/07/23 05:01:27;;;;;;;4.77;4.20;;;26.30;56.70;;;;;;5037519;28;20998;-70
2023/07/23 05:03:55;;;;;;;4.50;4.20;;;26.30;56.70;;;;;;5045536;28;20950;-66
2023/07/23 05:06:25;;;;;;;4.00;3.70;;;26.30;56.70;;;;;;5042642;28;20457;-67
2023/07/23 05:08:53;;;;;;;4.20;3.90;;;26.30;56.80;;;;;;5052697;28;20514;-66
2023/07/23 05:11:21;;;;;;;4.00;3.70;;;26.30;56.80;;;;;;5051308;28;20469;-71
2023/07/23 05:13:49;;;;;;;4.00;3.70;;;26.30;56.90;;;;;;5049375;28;20474;-72
2023/07/23 05:16:17;;;;;;;4.40;4.00;;;26.30;56.90;;;;;;5050397;28;20868;-67
2023/07/23 05:18:46;;;;;;;4.40;4.00;;;26.30;56.90;;;;;;5051199;28;20468;-67
2023/07/23 05:21:14;;;;;;;4.27;3.97;;;26.30;56.90;;;;;;5050439;28;21019;-67
2023/07/23 05:23:44;;;;;;;4.30;3.90;;;26.30;57.00;;;;;;5048434;28;20452;-67
2023/07/23 05:26:12;;;;;;;3.87;3.57;;;26.30;57.10;;;;;;5051614;28;20479;-68
2023/07/23 05:28:40;;;;;;;3.63;3.33;;;26.30;57.10;;;;;;5050774;28;20454;-67
2023/07/23 05:31:08;;;;;;;3.67;3.37;;;26.30;57.10;;;;;;5052664;28;20484;-67
2023/07/23 05:33:37;;;;;;;4.17;3.40;;;26.30;57.10;;;;;;5050786;28;20465;-68
2023/07/23 05:36:05;;;;;;;4.30;3.90;;;26.30;57.10;;;;;;5048348;28;20467;-67
2023/07/23 05:38:33;;;;;;;3.20;3.00;;;26.30;57.10;;;;;;5052546;28;20894;-67
2023/07/23 05:41:03;;;;;;;6.57;3.83;;;26.30;57.10;;;;;;5049862;28;20457;-76
2023/07/23 05:43:31;;;;;;;3.60;3.30;;;26.30;57.20;;;;;;5050974;28;20557;-67
2023/07/23 05:45:59;;;;;;;3.60;3.30;;;26.30;57.20;;;;;;5049706;28;20476;-66
2023/07/23 05:48:27;;;;;;;3.10;2.90;;;26.30;57.20;;;;;;5051496;28;20461;-67
2023/07/23 05:50:56;;;;;;;3.70;3.40;;;26.30;57.20;;;;;;5052522;28;20467;-67
2023/07/23 05:53:24;;;;;;;3.90;3.37;;;26.40;57.20;;;;;;5047910;28;20454;-74
2023/07/23 05:55:52;;;;;;;3.10;2.90;;;26.30;57.30;;;;;;5052229;28;20480;-67
2023/07/23 05:58:22;;;;;;;3.70;3.40;;;26.40;57.30;;;;;;5049404;28;20466;-68
2023/07/23 06:00:50;;;;;;;4.20;3.80;;;26.40;57.30;;;;;;5047890;28;20459;-70
2023/07/23 06:03:18;;;;;;;3.23;3.03;;;26.40;57.30;;;;;;5047832;28;20465;-76
2023/07/23 06:05:46;;;;;;;4.03;3.73;;;26.40;57.30;;;;;;5048536;28;20961;-72
2023/07/23 06:08:15;;;;;;;3.93;3.53;;;26.40;57.60;;;;;;5049649;28;20450;-69
2023/07/23 06:10:43;;;;;;;4.17;3.87;;;26.40;57.60;;;;;;5050855;28;20516;-67
2023/07/23 06:13:11;;;;;;;3.37;3.17;;;26.40;57.50;;;;;;5053407;28;20457;-66
2023/07/23 06:15:40;;;;;;;3.83;3.53;;;26.40;57.50;;;;;;5035510;28;20577;-66
2023/07/23 06:18:09;;;;;;;3.63;3.33;;;26.40;57.70;;;;;;5048836;28;20480;-66
2023/07/23 06:20:37;;;;;;;4.50;4.10;;;26.40;57.60;;;;;;5047181;28;21033;-71
2023/07/23 06:23:05;;;;;;;3.10;2.90;;;26.40;57.50;;;;;;5048512;28;20458;-66
2023/07/23 06:25:33;;;;;;;3.87;3.57;;;26.40;57.50;;;;;;5043446;28;20453;-71
2023/07/23 06:28:01;;;;;;;3.27;2.97;;;26.40;57.60;;;;;;5041261;28;20473;-66
2023/07/23 06:30:30;;;;;;;3.80;3.50;;;26.50;57.50;;;;;;5049987;28;20469;-66
2023/07/23 06:32:59;;;;;;;3.63;3.37;;;26.50;57.50;;;;;;5049382;28;20488;-68
2023/07/23 06:35:27;;;;;;;2.97;2.73;;;26.50;57.50;;;;;;5046779;28;20510;-72
2023/07/23 06:37:56;;;;;;;3.57;3.27;;;26.50;57.50;;;;;;5050607;28;20493;-66
2023/07/23 06:40:24;;;;;;;3.40;2.93;;;26.50;57.60;;;;;;5048350;28;20549;-66
2023/07/23 06:42:52;;;;;;;3.47;3.17;;;26.50;57.70;;;;;;5029551;28;20816;-66
2023/07/23 06:45:20;;;;;;;3.30;3.10;;;26.50;57.70;;;;;;5047084;28;20525;-76
2023/07/23 06:47:48;;;;;;;3.80;3.50;;;26.50;57.60;;;;;;5047016;28;20541;-69
2023/07/23 06:50:18;;;;;;;3.40;3.10;;;26.50;57.70;;;;;;5048423;28;20458;-74
2023/07/23 06:52:48;;;;;;;3.67;3.37;;;26.50;57.60;;;;;;5040632;28;20957;-70
2023/07/23 06:55:16;;;;;;;3.80;3.50;;;26.50;57.40;;;;;;5050138;28;20481;-67
2023/07/23 06:57:44;;;;;;;4.50;3.30;;;26.50;57.70;;;;;;5044110;28;21019;-68
2023/07/23 07:00:13;;;;;;;3.10;2.90;;;26.50;57.30;;;;;;5045390;28;20465;-70
2023/07/23 07:02:42;;;;;;;3.73;3.43;;;26.50;57.30;;;;;;5046392;28;20465;-67
2023/07/23 07:05:10;;;;;;;3.03;2.77;;;26.60;57.50;;;;;;5051563;28;20526;-74
2023/07/23 07:07:40;;;;;;;3.33;3.03;;;26.60;57.50;;;;;;5045325;28;20468;-67
2023/07/23 07:10:09;;;;;;;3.57;3.10;;;26.60;57.30;;;;;;5047289;28;20493;-74
2023/07/23 07:12:37;;;;;;;3.17;2.97;;;26.60;57.60;;;;;;5049403;28;20496;-68
2023/07/23 07:15:06;;;;;;;2.83;2.63;;;26.60;57.50;;;;;;5046360;28;20478;-67
2023/07/23 07:17:34;;;;;;;3.27;3.07;;;26.60;57.70;;;;;;5046725;28;20995;-66
2023/07/23 07:20:03;;;;;;;3.70;3.40;;;26.60;57.60;;;;;;5048357;28;20465;-68
2023/07/23 07:22:31;;;;;;;3.70;3.37;;;26.60;57.30;;;;;;5046598;28;21007;-67
2023/07/23 07:25:01;;;;;;;2.53;2.43;;;26.60;57.60;;;;;;5048520;28;20474;-76
2023/07/23 07:27:29;;;;;;;3.00;2.80;;;26.60;57.40;;;;;;5044595;28;20962;-67
2023/07/23 07:29:57;;;;;;;3.00;2.73;;;26.60;57.50;;;;;;5051171;28;20483;-67
2023/07/23 07:32:28;;;;;;;3.70;3.40;;;26.60;57.30;;;;;;5046316;28;20549;-79
2023/07/23 07:34:56;;;;;;;3.00;2.70;;;26.60;57.50;;;;;;5051149;28;20481;-66
2023/07/23 07:37:25;;;;;;;2.97;2.77;;;26.60;57.40;;;;;;5048167;28;20471;-68
2023/07/23 07:39:55;;;;;;;3.50;3.20;;;26.60;57.50;;;;;;5047275;28;20451;-72
2023/07/23 07:42:24;;;;;;;3.40;3.10;;;26.70;57.20;;;;;;5048843;28;20556;-67
2023/07/23 07:44:52;;;;;;;2.30;2.10;;;26.70;57.40;;;;;;5032188;28;20865;-67
2023/07/23 07:47:20;;;;;;;2.90;2.70;;;26.70;57.30;;;;;;5044866;28;20466;-75
2023/07/23 07:49:52;;;;;;;3.37;3.17;;;26.70;57.30;;;;;;5027833;28;20451;-67
2023/07/23 07:52:21;;;;;;;4.90;3.17;;;26.70;57.50;;;;;;5050171;28;20486;-83
2023/07/23 07:54:49;;;;;;;2.73;2.53;;;26.70;57.20;;;;;;5045909;28;20797;-68
2023/07/23 07:57:17;;;;;;;2.97;2.77;;;26.70;57.50;;;;;;5042334;28;20462;-68
2023/07/23 07:59:48;;;;;;;2.93;2.70;;;26.80;57.30;;;;;;5050030;28;20873;-68
2023/07/23 08:02:17;;;;;;;2.83;2.63;;;26.80;57.20;;;;;;5043284;28;20949;-67
2023/07/23 08:04:45;;;;;;;3.70;3.40;;;26.80;57.00;;;;;;5047773;28;20812;-67
2023/07/23 08:07:15;;;;;;;3.10;2.80;;;26.80;57.00;;;;;;5048924;28;20460;-76
2023/07/23 08:09:44;;;;;;;2.97;2.73;;;26.80;57.00;;;;;;5026088;28;20878;-76
2023/07/23 08:12:13;;;;;;;3.40;3.10;;;26.80;57.10;;;;;;5048232;28;20465;-68
2023/07/23 08:14:42;;;;;;;3.00;2.80;;;26.80;57.40;;;;;;5049001;28;20819;-68
2023/07/23 08:17:13;;;;;;;3.27;3.07;;;26.80;57.10;;;;;;5045837;28;20481;-68
2023/07/23 08:19:41;;;;;;;3.27;2.97;;;26.80;57.10;;;;;;5048342;28;20513;-84
2023/07/23 08:22:10;;;;;;;3.17;2.70;;;26.80;57.00;;;;;;5045470;28;20528;-66
2023/07/23 08:24:39;;;;;;;3.13;2.60;;;26.80;57.30;;;;;;5044889;28;20534;-66
2023/07/23 08:27:09;;;;;;;3.53;2.67;;;26.80;57.30;;;;;;5044423;28;20519;-68
2023/07/23 08:29:40;;;;;;;5.93;4.80;;;26.80;57.70;;;;;;5041282;28;20458;-70
2023/07/23 08:32:15;;;;;;;2.90;2.70;;;26.80;57.70;;;;;;5044552;28;20796;-67
2023/07/23 08:34:44;;;;;;;2.70;2.50;;;26.80;57.30;;;;;;5044488;28;20466;-69
2023/07/23 08:37:13;;;;;;;3.20;2.90;;;26.80;57.40;;;;;;5029764;28;20808;-74
2023/07/23 08:39:42;;;;;;;3.43;2.83;;;26.80;57.30;;;;;;5045522;28;20494;-74
2023/07/23 08:42:29;;;;;;;4.07;2.87;;;26.80;57.40;;;;;;5043280;28;20462;-67
2023/07/23 08:45:48;;;;;;;3.30;3.10;;;26.80;57.20;;;;;;5046578;28;20947;-67
2023/07/23 08:48:19;;;;;;;2.87;2.23;;;26.80;57.40;;;;;;5042925;28;20451;-72
2023/07/23 08:50:49;;;;;;;3.50;3.20;;;26.80;57.60;;;;;;5050304;28;20459;-68
2023/07/23 08:53:19;;;;;;;3.33;2.93;;;26.80;57.30;;;;;;5044239;28;20463;-71
2023/07/23 08:55:48;;;;;;;2.70;2.50;;;26.80;57.20;;;;;;5040128;28;20571;-67
2023/07/23 08:58:18;;;;;;;3.57;3.27;;;26.80;57.20;;;;;;5042590;28;20470;-83
2023/07/23 09:00:47;;;;;;;3.80;3.30;;;26.80;57.20;;;;;;5042345;28;21049;-68
2023/07/23 09:03:20;;;;;;;3.63;2.97;;;26.80;57.40;;;;;;5025549;28;20459;-83
2023/07/23 09:05:49;;;;;;;3.07;2.60;;;26.80;57.20;;;;;;5046113;28;20462;-66
2023/07/23 09:08:21;;;;;;;2.73;2.63;;;26.80;57.30;;;;;;5046500;28;20459;-65
2023/07/23 09:10:49;;;;;;;2.57;2.37;;;26.80;57.40;;;;;;5045826;28;20454;-66
2023/07/23 09:13:17;;;;;;;3.47;3.17;;;26.80;57.30;;;;;;5044662;28;20484;-67
2023/07/23 09:15:54;;;;;;;3.57;3.27;;;26.90;57.10;;;;;;5044065;28;20464;-73
2023/07/23 09:18:25;;;;;;;2.87;2.40;;;26.90;57.50;;;;;;5049676;28;20553;-65
2023/07/23 09:20:53;;;;;;;2.93;2.73;;;26.90;57.50;;;;;;5041116;28;20667;-66
2023/07/23 09:23:22;;;;;;;3.00;2.77;;;26.90;57.50;;;;;;5045466;28;20456;-73
2023/07/23 09:25:50;;;;;;;3.60;3.30;;;26.90;57.40;;;;;;5048192;28;20525;-70
2023/07/23 09:28:22;;;;;;;4.43;2.67;;;27.00;57.40;;;;;;5044440;28;20470;-68
2023/07/23 09:30:54;;;;;;;2.67;2.47;;;27.00;57.10;;;;;;5048473;28;20470;-68
2023/07/23 09:33:22;;;;;;;2.43;2.20;;;27.00;57.30;;;;;;5045833;28;20550;-71
2023/07/23 09:35:52;;;;;;;3.07;2.33;;;27.00;57.30;;;;;;5047694;28;20845;-68
2023/07/23 09:38:20;;;;;;;2.13;2.03;;;27.00;57.20;;;;;;5024806;28;20497;-69
2023/07/23 09:40:50;;;;;;;2.70;2.50;;;27.00;57.20;;;;;;5038832;28;20449;-68
2023/07/23 09:43:18;;;;;;;2.63;2.40;;;27.00;57.40;;;;;;5040211;28;20858;-69
2023/07/23 09:45:46;;;;;;;3.10;2.67;;;27.00;57.20;;;;;;5038635;28;20982;-68
2023/07/23 09:48:16;;;;;;;2.33;2.13;;;27.00;57.10;;;;;;5043265;28;20522;-70
2023/07/23 09:50:45;;;;;;;2.93;2.70;;;27.00;57.20;;;;;;5038674;28;20649;-76
2023/07/23 09:53:16;;;;;;;2.90;2.67;;;27.00;57.30;;;;;;5029175;28;20463;-69
2023/07/23 09:55:44;;;;;;;3.10;2.77;;;27.00;57.00;;;;;;5043773;28;20492;-71
2023/07/23 09:58:13;;;;;;;2.53;2.33;;;27.10;56.80;;;;;;5044550;28;20481;-68
2023/07/23 10:00:43;;;;;;;2.53;2.33;;;27.10;56.80;;;;;;5048077;28;20513;-67
2023/07/23 10:03:14;;;;;;;10.33;3.13;;;27.10;56.80;;;;;;5051079;28;20470;-67
2023/07/23 10:05:43;;;;;;;4.07;2.60;;;27.10;56.70;;;;;;5050125;28;20541;-71
2023/07/23 10:08:13;;;;;;;3.80;2.90;;;27.10;56.60;;;;;;5038814;28;20466;-67
2023/07/23 10:10:43;;;;;;;3.20;2.73;;;27.10;56.60;;;;;;5047598;28;20478;-70
2023/07/23 10:13:11;;;;;;;2.30;2.10;;;27.20;56.60;;;;;;5046260;28;20458;-67
2023/07/23 10:15:40;;;;;;;2.07;1.97;;;27.20;56.50;;;;;;5047424;28;20461;-67
2023/07/23 10:18:09;;;;;;;4.47;2.80;;;27.20;56.40;;;;;;5049402;28;20989;-67
2023/07/23 10:20:39;;;;;;;2.50;2.30;;;27.20;56.30;;;;;;5050333;28;20519;-68
2023/07/23 10:23:08;;;;;;;2.97;2.60;;;27.20;56.20;;;;;;5049901;28;20459;-70
2023/07/23 10:25:36;;;;;;;2.80;2.60;;;27.20;56.20;;;;;;5045863;28;20473;-67
2023/07/23 10:28:10;;;;;;;3.70;2.50;;;27.20;56.10;;;;;;5027320;28;20449;-67
2023/07/23 10:30:39;;;;;;;2.90;2.37;;;27.20;56.20;;;;;;5051529;28;20526;-80
2023/07/23 10:33:34;;;;;;;2.50;2.30;;;27.30;56.10;;;;;;5036019;28;21174;-70
2023/07/23 10:36:04;;;;;;;2.30;2.20;;;27.30;56.00;;;;;;5005479;28;20952;-68
2023/07/23 10:38:35;;;;;;;3.10;2.80;;;27.30;55.90;;;;;;5047306;28;20501;-74
2023/07/23 10:41:04;;;;;;;3.33;2.27;;;27.30;55.90;;;;;;5030269;28;20554;-68
2023/07/23 10:43:45;;;;;;;2.60;2.40;;;27.40;55.70;;;;;;5046418;28;20467;-75
2023/07/23 10:46:15;;;;;;;2.80;2.60;;;27.30;55.80;;;;;;5050366;28;21002;-73
2023/07/23 10:48:47;;;;;;;3.00;2.70;;;27.40;55.70;;;;;;5049525;28;20557;-70
2023/07/23 10:51:19;;;;;;;2.70;2.50;;;27.40;55.70;;;;;;5048622;28;20509;-79
2023/07/23 10:54:02;;;;;;;3.10;2.40;;;27.40;55.60;;;;;;5048759;28;20538;-68
2023/07/23 10:56:36;;;;;;;2.93;2.70;;;27.40;55.70;;;;;;5048667;28;20458;-67
2023/07/23 10:59:07;;;;;;;2.97;2.67;;;27.40;55.60;;;;;;5030597;28;21059;-67
2023/07/23 11:01:38;;;;;;;2.37;2.27;;;27.40;55.70;;;;;;5048578;28;20453;-68
2023/07/23 11:04:10;;;;;;;2.37;2.20;;;27.40;55.60;;;;;;5049306;28;20465;-68
2023/07/23 11:06:41;;;;;;;2.50;2.30;;;27.40;55.60;;;;;;5050433;28;20460;-72
2023/07/23 11:09:11;;;;;;;2.33;2.20;;;27.40;55.70;;;;;;5046677;28;20504;-68
2023/07/23 11:11:41;;;;;;;2.57;2.37;;;27.40;55.60;;;;;;5042382;28;20515;-73
2023/07/23 11:14:21;;;;;;;2.60;2.40;;;27.40;55.60;;;;;;5046405;28;21025;-68
2023/07/23 11:16:50;;;;;;;3.00;2.80;;;27.40;55.60;;;;;;5044943;28;21097;-68
2023/07/23 11:19:20;;;;;;;2.40;2.20;;;27.40;55.60;;;;;;5043955;28;20511;-68
2023/07/23 11:21:50;;;;;;;3.03;2.83;;;27.40;55.70;;;;;;5045685;28;20528;-73
2023/07/23 11:24:20;;;;;;;4.70;3.33;;;27.40;55.70;;;;;;5050030;28;20458;-68
2023/07/23 11:26:49;;;;;;;2.57;2.37;;;27.40;55.60;;;;;;5045909;28;20494;-72
2023/07/23 11:29:23;;;;;;;2.67;2.47;;;27.40;55.60;;;;;;5044234;28;20537;-67
2023/07/23 11:31:52;;;;;;;2.90;2.70;;;27.50;55.70;;;;;;5040758;28;20453;-72
2023/07/23 11:34:22;;;;;;;2.20;2.10;;;27.50;55.60;;;;;;5049400;28;20457;-67
2023/07/23 11:36:54;;;;;;;4.90;2.80;;;27.50;55.60;;;;;;5043370;28;20954;-67
2023/07/23 11:39:24;;;;;;;2.67;2.47;;;27.50;55.60;;;;;;5048115;28;20555;-70
2023/07/23 11:41:54;;;;;;;3.10;2.80;;;27.50;55.60;;;;;;5044655;28;20469;-72
2023/07/23 11:44:24;;;;;;;2.50;2.30;;;27.50;55.60;;;;;;5047445;28;20469;-70
2023/07/23 11:47:00;;;;;;;3.23;2.93;;;27.50;55.60;;;;;;5046880;28;20456;-67
2023/07/23 11:49:28;;;;;;;3.10;2.50;;;27.50;55.60;;;;;;5040327;28;20479;-67
2023/07/23 11:51:58;;;;;;;2.20;2.10;;;27.50;55.60;;;;;;5049538;28;20962;-73
2023/07/23 11:54:27;;;;;;;3.13;2.57;;;27.50;55.60;;;;;;5040687;28;20572;-75
2023/07/23 11:56:55;;;;;;;5.97;2.47;;;27.60;55.50;;;;;;5044557;28;20956;-74
2023/07/23 11:59:26;;;;;;;3.37;3.17;;;27.60;55.40;;;;;;5048854;28;20467;-68
2023/07/23 12:01:58;;;;;;;3.47;3.17;;;27.70;55.30;;;;;;5045742;28;20553;-73
2023/07/23 12:04:26;;;;;;;3.80;3.20;;;27.70;55.20;;;;;;5039813;28;20533;-75
2023/07/23 12:06:55;;;;;;;3.97;3.17;;;27.70;55.20;;;;;;5049620;28;20509;-68
2023/07/23 12:09:23;;;;;;;3.50;3.20;;;27.70;55.20;;;;;;5046736;28;20467;-68
2023/07/23 12:11:52;;;;;;;3.40;3.10;;;27.70;55.30;;;;;;5045827;28;20454;-72
2023/07/23 12:14:21;;;;;;;3.10;2.90;;;27.60;55.40;;;;;;5047003;28;20863;-71
2023/07/23 12:16:51;;;;;;;3.47;3.00;;;27.70;55.40;;;;;;5044957;28;20488;-68
2023/07/23 12:19:21;;;;;;;4.57;3.13;;;27.80;55.50;;;;;;5038834;28;20478;-67
2023/07/23 12:21:53;;;;;;;4.40;3.10;;;28.10;55.00;;;;;;5046342;28;20458;-68
2023/07/23 12:24:23;;;;;;;3.70;3.20;;;28.20;54.40;;;;;;5038575;28;20448;-70
2023/07/23 12:26:54;;;;;;;5.27;3.87;;;28.30;54.50;;;;;;5044075;28;20457;-68
2023/07/23 12:29:23;;;;;;;3.60;3.30;;;28.40;54.30;;;;;;5047865;28;20466;-72
2023/07/23 12:32:12;;;;;;;3.53;3.23;;;28.60;54.10;;;;;;5042869;28;20454;-74
2023/07/23 12:34:42;;;;;;;3.83;3.50;;;28.70;53.70;;;;;;5044460;28;21013;-68
2023/07/23 12:37:11;;;;;;;4.33;3.93;;;28.70;53.50;;;;;;5050143;28;20521;-69
2023/07/23 12:39:40;;;;;;;3.77;3.40;;;28.60;53.50;;;;;;5045980;28;20492;-67
2023/07/23 12:42:09;;;;;;;4.17;3.50;;;28.50;53.70;;;;;;5040922;28;20976;-68
2023/07/23 12:44:37;;;;;;;3.60;3.17;;;28.40;53.80;;;;;;5046927;28;20451;-69
2023/07/23 12:47:06;;;;;;;3.80;3.47;;;28.30;54.00;;;;;;5037481;28;20451;-71
2023/07/23 12:49:35;;;;;;;4.00;3.70;;;28.20;54.20;;;;;;5025400;28;20449;-69
2023/07/23 12:52:04;;;;;;;3.40;3.10;;;28.10;54.40;;;;;;5037762;28;20981;-73
2023/07/23 12:54:32;;;;;;;3.67;3.17;;;28.00;54.50;;;;;;5038725;28;20475;-73
2023/07/23 12:57:03;;;;;;;3.70;3.33;;;27.90;54.70;;;;;;5038091;28;20445;-74
2023/07/23 12:59:31;;;;;;;4.07;3.67;;;27.80;54.80;;;;;;5039848;28;20472;-68